Big Piney, WY weather

Big Piney-Marbleton Airport (AMOS), Big Piney, WY: 10/20/2014 08:53
Visibility10 statute milesclear sky
View 7-Day Forecast
Area Summary
Sky/CloudsSky Clear
Weather [last 24 hours]None
Pressure30.23 in.Hg (1024 hPa)
3-hour Pressure Tendency0.01476 in.Hg (0.5 hPa) Decreasing or steady, then increasing; or increasing then increasing more rapidly
Dew Point25 F (-3.9 C)
Relative Humidity 64 %
Temperature36 F (2.2 C)red thermometer
Reading TimeMinimum to Maximum Temperature
6-hr ending 10/20@05:5325 F to 34 F (-3.9 C to 1.1 C)
6-hr ending 10/19@23:5330 F to 62.1 F (-1.1 C to 16.7 C)
6-hr ending 10/19@17:5357 F to 66 F (13.9 C to 18.9 C)
6-hr ending 10/19@11:5325 F to 55.9 F (-3.9 C to 13.3 C)
24-hr ending 10/20@00:5325 F to 66 F (-3.9 C to 18.9 C)
Wind0 MPH (0 KT) green arrow pointing at 0 degrees
Wind FromNorth (000 Degrees)
Twilight Begins07:12Sunshine Yesterday
Sunrise07:40N/A
Sunset18:29
Twilight Ends18:58
METARKBPI 201453Z AUTO 00000KT 10SM CLR 02/M04 A3023 RMK AO2 SLP206 T00221039 53005
Tags: